Boryslav — ENLB — position and weather

sailwx.info

Track history (hours):
 
Tides and Currents Weather Stations Pressure Air Temp Water Temp Dewpoint Dewpoint Depression Visibility Wind Speed Wind Dir Waves Ship Positions

Boryslav

Last reported at 2015-Jul-30 01:29 UTC. Time now 2015-Jul-31 03:08 UTC.
Position N 46°34' E 032°28'.

Length 86 m; draft 1.8 m.

Type: Cargo ship. MMSI: 272088700.

Date/timePositionNaut miles runAvg speedWind from/ knotsBaromVisibWave heightAir tempDewpointWater temp
2015-Jul-30 01:29N 46°34' E 032°28'4 4.5
2015-Jul-30 00:33N 46°33' E 032°22'6 5.9
2015-Jul-29 23:33N 46°33' E 032°14'7 7.0
2015-Jul-29 22:33N 46°32' E 032°03'7 7.2
2015-Jul-29 21:33N 46°34' E 031°53'7 6.7
2015-Jul-29 20:33N 46°36' E 031°44'8 6.5
2015-Jul-29 19:16N 46°35' E 031°32'4 5.2
2015-Jul-29 18:33N 46°35' E 031°26'7 6.8
2015-Jul-29 17:33N 46°30' E 031°19'  
Track history (hours):
 
Tides and Currents Weather Stations Pressure Air Temp Water Temp Dewpoint Dewpoint Depression Visibility Wind Speed Wind Dir Waves Ship Positions

Boryslav

Last reported at 2015-Jul-30 01:29 UTC. Time now 2015-Jul-31 03:08 UTC.
Position N 46°34' E 032°28'.

Length 86 m; draft 1.8 m.

Type: Cargo ship. MMSI: 272088700.

Date/timePositionNaut miles runAvg speedWind from/ knotsBaromVisibWave heightAir tempDewpointWater temp
2015-Jul-30 01:29N 46°34' E 032°28'4 4.5
2015-Jul-30 00:33N 46°33' E 032°22'6 5.9
2015-Jul-29 23:33N 46°33' E 032°14'7 7.0
2015-Jul-29 22:33N 46°32' E 032°03'7 7.2
2015-Jul-29 21:33N 46°34' E 031°53'7 6.7
2015-Jul-29 20:33N 46°36' E 031°44'8 6.5
2015-Jul-29 19:16N 46°35' E 031°32'4 5.2
2015-Jul-29 18:33N 46°35' E 031°26'7 6.8
2015-Jul-29 17:33N 46°30' E 031°19'  

Dump ship's entire track history